createdAt,value
2023-03-01T00:01:33.788Z,44.09
2023-03-01T00:04:01.441Z,44.06
2023-03-01T00:06:29.155Z,43.82
2023-03-01T00:08:56.871Z,43.92
2023-03-01T00:11:29.753Z,44.06
2023-03-01T00:13:59.840Z,43.90
2023-03-01T00:16:31.527Z,44.24
2023-03-01T00:18:59.177Z,44.32
2023-03-01T00:21:27.723Z,44.24
2023-03-01T00:23:55.524Z,44.32
2023-03-01T00:26:24.503Z,44.29
2023-03-01T00:28:52.707Z,44.22
2023-03-01T00:31:27.014Z,44.39
2023-03-01T00:33:58.926Z,44.59
2023-03-01T00:36:29.627Z,44.58
2023-03-01T00:38:57.907Z,44.12
2023-03-01T00:41:27.553Z,44.16
2023-03-01T00:43:55.635Z,44.28
2023-03-01T00:46:26.659Z,44.10
2023-03-01T00:48:54.582Z,44.15
2023-03-01T00:51:27.747Z,43.98
2023-03-01T00:54:00.101Z,43.84
2023-03-01T00:56:28.261Z,43.83
2023-03-01T00:58:56.411Z,43.82
2023-03-01T01:01:28.327Z,43.13
2023-03-01T01:03:58.822Z,43.27
2023-03-01T01:06:31.921Z,43.26
2023-03-01T01:09:00.204Z,42.83
2023-03-01T01:11:29.458Z,42.85
2023-03-01T01:13:57.845Z,43.40
2023-03-01T01:16:27.281Z,43.51
2023-03-01T01:18:54.692Z,43.72
2023-03-01T01:21:23.980Z,43.99
2023-03-01T01:23:52.003Z,43.60
2023-03-01T01:26:28.253Z,43.67
2023-03-01T01:28:56.418Z,44.09
2023-03-01T01:31:25.683Z,43.65
2023-03-01T01:33:54.003Z,43.98
2023-03-01T01:36:21.970Z,43.99
2023-03-01T01:38:49.714Z,43.84
2023-03-01T01:41:17.994Z,43.86
2023-03-01T01:44:06.980Z,43.83
2023-03-01T01:46:36.736Z,44.14
2023-03-01T01:49:07.111Z,44.05
2023-03-01T01:51:39.538Z,44.25
2023-03-01T01:54:20.052Z,43.68
2023-03-01T01:56:56.482Z,44.29
2023-03-01T01:59:25.606Z,44.20
2023-03-01T02:01:53.912Z,43.76
2023-03-01T02:04:22.032Z,44.26
2023-03-01T02:06:55.286Z,44.05
2023-03-01T02:09:24.534Z,44.05
2023-03-01T02:11:53.130Z,44.21
2023-03-01T02:14:20.617Z,44.13
2023-03-01T02:16:48.652Z,44.36
2023-03-01T02:19:55.345Z,44.60
2023-03-01T02:22:29.257Z,44.95
2023-03-01T02:25:21.163Z,44.98
2023-03-01T02:28:01.932Z,44.79
2023-03-01T02:30:30.468Z,44.79
2023-03-01T02:33:05.428Z,45.01
2023-03-01T02:35:36.392Z,45.03
2023-03-01T02:38:05.116Z,44.67
2023-03-01T02:40:34.666Z,44.63
2023-03-01T02:43:05.448Z,44.72
2023-03-01T02:45:33.121Z,44.89
2023-03-01T02:48:00.662Z,44.84
2023-03-01T02:50:31.222Z,45.46
2023-03-01T02:53:05.839Z,45.20
2023-03-01T02:55:33.525Z,45.61
2023-03-01T02:58:03.241Z,45.47
2023-03-01T03:00:40.584Z,45.39
2023-03-01T03:03:08.922Z,44.97
2023-03-01T03:05:36.319Z,45.42
2023-03-01T03:08:04.188Z,45.34
2023-03-01T03:10:34.571Z,45.45
2023-03-01T03:13:09.577Z,45.65
2023-03-01T03:15:39.367Z,45.86
2023-03-01T03:18:10.378Z,45.86
2023-03-01T03:20:40.794Z,45.89
2023-03-01T03:23:08.280Z,45.84
2023-03-01T03:25:38.663Z,45.88
2023-03-01T03:28:10.501Z,46.09
2023-03-01T03:30:40.711Z,45.93
2023-03-01T03:33:11.211Z,45.91
2023-03-01T03:35:43.034Z,45.70
2023-03-01T03:38:16.660Z,46.02
2023-03-01T03:40:49.701Z,46.01
2023-03-01T03:43:19.917Z,46.41
2023-03-01T03:45:48.870Z,45.95
2023-03-01T03:48:16.836Z,46.16
2023-03-01T03:50:50.274Z,46.34
2023-03-01T03:53:18.023Z,45.75
2023-03-01T03:55:45.801Z,46.21
2023-03-01T03:58:13.177Z,46.21
2023-03-01T04:00:45.278Z,46.10
2023-03-01T04:03:14.548Z,46.23
2023-03-01T04:05:42.579Z,46.37
2023-03-01T04:08:10.449Z,46.18
2023-03-01T04:10:44.603Z,46.53
2023-03-01T04:13:14.073Z,46.90
2023-03-01T04:15:43.948Z,46.80
2023-03-01T04:18:15.775Z,46.41
2023-03-01T04:20:44.233Z,46.10
2023-03-01T04:23:21.564Z,46.51
2023-03-01T04:25:54.925Z,46.85
2023-03-01T04:28:27.831Z,46.29
2023-03-01T04:30:56.790Z,46.28
2023-03-01T04:33:25.090Z,46.79
2023-03-01T04:35:52.805Z,46.70
2023-03-01T04:38:22.109Z,46.89
2023-03-01T04:40:49.642Z,47.08
2023-03-01T04:43:17.540Z,46.56
2023-03-01T04:45:45.290Z,47.13
2023-03-01T04:48:12.685Z,47.12
2023-03-01T04:50:40.068Z,46.60
2023-03-01T04:53:07.728Z,46.85
2023-03-01T04:55:35.256Z,46.75
2023-03-01T04:58:02.671Z,46.77
2023-03-01T05:00:30.409Z,46.44
2023-03-01T05:03:00.724Z,46.21
2023-03-01T05:05:39.222Z,45.74
2023-03-01T05:08:08.824Z,45.91
2023-03-01T05:10:37.262Z,45.92
2023-03-01T05:13:05.101Z,46.00
2023-03-01T05:15:33.536Z,45.75
2023-03-01T05:18:01.402Z,45.08
2023-03-01T05:20:30.251Z,45.59
2023-03-01T05:23:00.037Z,45.77
2023-03-01T05:25:28.174Z,45.62
2023-03-01T05:27:55.584Z,45.16
2023-03-01T05:30:23.575Z,45.60
2023-03-01T05:32:56.690Z,44.87
2023-03-01T05:35:24.974Z,45.00
2023-03-01T05:37:52.671Z,45.33
2023-03-01T05:40:22.029Z,45.57
2023-03-01T05:42:53.233Z,45.34
2023-03-01T05:45:20.821Z,45.80
2023-03-01T05:47:49.411Z,46.11
2023-03-01T05:50:26.181Z,45.87
2023-03-01T05:53:02.024Z,45.92
2023-03-01T05:55:31.967Z,46.30
2023-03-01T05:58:00.947Z,46.03
2023-03-01T06:00:29.952Z,46.22
2023-03-01T06:02:59.049Z,46.19
2023-03-01T06:05:27.153Z,46.11
2023-03-01T06:07:54.810Z,46.15
2023-03-01T06:10:23.359Z,46.51
2023-03-01T06:12:50.704Z,46.35
2023-03-01T06:15:18.515Z,46.66
2023-03-01T06:17:46.926Z,46.65
2023-03-01T06:20:18.697Z,46.52
2023-03-01T06:22:47.555Z,46.36
2023-03-01T06:25:17.502Z,46.72
2023-03-01T06:27:45.197Z,46.94
2023-03-01T06:30:15.680Z,46.64
2023-03-01T06:32:43.400Z,46.50
2023-03-01T06:35:12.212Z,46.20
2023-03-01T06:37:40.514Z,45.79
2023-03-01T06:40:09.121Z,45.91
2023-03-01T06:42:36.941Z,45.70
2023-03-01T06:45:06.313Z,45.69
2023-03-01T06:47:34.309Z,46.05
2023-03-01T06:50:02.765Z,45.73
2023-03-01T06:52:30.602Z,45.54
2023-03-01T06:54:57.978Z,45.33
2023-03-01T06:57:25.645Z,45.50
2023-03-01T06:59:53.404Z,45.67
2023-03-01T07:02:20.790Z,45.75
2023-03-01T07:04:50.290Z,45.98
2023-03-01T07:07:19.001Z,46.04
2023-03-01T07:09:47.117Z,46.42
2023-03-01T07:12:14.520Z,46.44
2023-03-01T07:14:42.610Z,52.89
2023-03-01T07:17:10.130Z,52.00
2023-03-01T07:19:37.771Z,49.63
2023-03-01T07:22:05.445Z,45.24
2023-03-01T07:24:32.853Z,44.37
2023-03-01T07:27:00.335Z,44.54
2023-03-01T07:29:29.687Z,45.16
2023-03-01T07:31:57.173Z,45.52
2023-03-01T07:34:24.651Z,45.02
2023-03-01T07:36:52.314Z,44.84
2023-03-01T07:39:19.884Z,44.49
2023-03-01T07:41:47.319Z,45.14
2023-03-01T07:44:15.918Z,45.21
2023-03-01T07:46:43.278Z,45.42
2023-03-01T07:49:11.169Z,44.80
2023-03-01T07:51:39.119Z,44.37
2023-03-01T07:54:06.541Z,44.55
2023-03-01T07:56:34.158Z,44.33
2023-03-01T07:59:02.027Z,44.05
2023-03-01T08:01:29.460Z,43.95
2023-03-01T08:03:57.147Z,44.12
2023-03-01T08:06:24.504Z,43.67
2023-03-01T08:08:51.946Z,43.49
2023-03-01T08:11:19.604Z,44.02
2023-03-01T08:13:51.380Z,43.78
2023-03-01T08:16:20.252Z,44.10
2023-03-01T08:18:47.916Z,43.78
2023-03-01T08:21:18.405Z,43.69
2023-03-01T08:23:46.256Z,43.91
2023-03-01T08:26:19.646Z,43.61
2023-03-01T08:28:48.242Z,43.44
2023-03-01T08:31:22.753Z,42.81
2023-03-01T08:33:56.060Z,42.15
2023-03-01T08:36:25.048Z,42.35
2023-03-01T08:38:53.061Z,42.54
2023-03-01T08:41:20.700Z,42.02
2023-03-01T08:43:48.111Z,42.16
2023-03-01T08:46:15.976Z,41.83
2023-03-01T08:48:44.170Z,41.18
2023-03-01T08:51:17.193Z,40.72
2023-03-01T08:53:45.632Z,41.23
2023-03-01T08:56:13.413Z,41.45
2023-03-01T08:58:41.015Z,41.39
2023-03-01T09:01:10.264Z,41.28
2023-03-01T09:03:38.155Z,40.87
2023-03-01T09:06:08.349Z,40.66
2023-03-01T09:08:40.327Z,40.23
2023-03-01T09:11:09.088Z,40.10
2023-03-01T09:13:36.997Z,39.58
2023-03-01T09:16:06.635Z,39.72
2023-03-01T09:18:34.850Z,39.79
2023-03-01T09:21:10.951Z,40.00
2023-03-01T09:23:41.836Z,40.25
2023-03-01T09:26:11.670Z,40.30
2023-03-01T09:28:39.445Z,40.46
2023-03-01T09:31:06.877Z,39.93
2023-03-01T09:33:34.668Z,39.85
2023-03-01T09:36:04.498Z,40.04
2023-03-01T09:38:32.539Z,39.58
2023-03-01T09:41:01.652Z,39.42
2023-03-01T09:43:48.357Z,39.63
2023-03-01T09:46:19.939Z,39.55
2023-03-01T09:48:54.484Z,39.74
2023-03-01T09:51:28.501Z,39.98
2023-03-01T09:53:57.971Z,40.24
2023-03-01T09:56:35.314Z,40.00
2023-03-01T09:59:14.878Z,39.47
2023-03-01T10:01:49.715Z,39.55
2023-03-01T10:04:42.599Z,39.33
2023-03-01T10:07:30.461Z,39.04
2023-03-01T10:09:58.431Z,38.65
2023-03-01T10:12:29.010Z,38.63
2023-03-01T10:15:12.994Z,38.26
2023-03-01T10:17:46.391Z,38.40
2023-03-01T10:20:14.021Z,38.52
2023-03-01T10:22:41.746Z,38.57
2023-03-01T10:25:15.076Z,38.03
2023-03-01T10:28:01.059Z,38.18
2023-03-01T10:30:36.001Z,39.81
2023-03-01T10:33:04.845Z,39.48
2023-03-01T10:35:34.369Z,39.65
2023-03-01T10:38:10.219Z,38.72
2023-03-01T10:40:57.953Z,38.37
2023-03-01T10:43:27.613Z,38.18
2023-03-01T10:45:55.485Z,38.36
2023-03-01T10:48:27.898Z,38.83
2023-03-01T10:50:58.498Z,38.22
2023-03-01T10:53:39.204Z,38.16
2023-03-01T10:56:12.998Z,38.19
2023-03-01T10:58:58.324Z,38.56
2023-03-01T11:01:36.359Z,38.24
2023-03-01T11:04:12.545Z,38.05
2023-03-01T11:06:44.356Z,37.63
2023-03-01T11:09:19.038Z,37.74
2023-03-01T11:11:47.418Z,38.24
2023-03-01T11:14:26.791Z,38.17
2023-03-01T11:17:22.730Z,38.43
2023-03-01T11:20:11.208Z,37.75
2023-03-01T11:22:46.768Z,37.30
2023-03-01T11:25:15.576Z,37.06
2023-03-01T11:27:46.642Z,37.45
2023-03-01T11:30:18.386Z,37.70
2023-03-01T11:33:07.024Z,36.42
2023-03-01T11:35:38.612Z,37.32
2023-03-01T11:38:16.852Z,37.18
2023-03-01T11:40:47.284Z,37.13
2023-03-01T11:43:38.194Z,36.93
2023-03-01T11:46:24.392Z,37.27
2023-03-01T11:49:11.400Z,37.01
2023-03-01T11:52:00.787Z,36.99
2023-03-01T11:54:37.224Z,36.65
2023-03-01T11:57:34.211Z,36.09
2023-03-01T12:00:22.439Z,36.98
2023-03-01T12:03:18.915Z,37.13
2023-03-01T12:05:52.135Z,37.16
2023-03-01T12:08:31.912Z,36.54
2023-03-01T12:11:24.020Z,36.15
2023-03-01T12:14:03.546Z,36.52
2023-03-01T12:16:51.642Z,36.95
2023-03-01T12:19:22.013Z,37.20
2023-03-01T12:22:10.924Z,36.96
2023-03-01T12:24:50.442Z,36.35
2023-03-01T12:27:25.142Z,36.71
2023-03-01T12:30:27.053Z,37.15
2023-03-01T12:33:07.512Z,36.31
2023-03-01T12:35:55.894Z,36.55
2023-03-01T12:38:29.542Z,36.71
2023-03-01T12:41:21.496Z,36.16
2023-03-01T12:43:55.736Z,36.48
2023-03-01T12:46:48.500Z,36.13
2023-03-01T12:49:20.194Z,35.79
2023-03-01T12:52:01.590Z,36.07
2023-03-01T12:54:34.556Z,36.19
2023-03-01T12:57:24.245Z,36.24
2023-03-01T13:00:11.078Z,35.71
2023-03-01T13:02:48.281Z,35.47
2023-03-01T13:05:22.041Z,35.87
2023-03-01T13:08:24.830Z,35.65
2023-03-01T13:11:03.194Z,35.55
2023-03-01T13:13:31.176Z,35.47
2023-03-01T13:15:59.015Z,35.02
2023-03-01T13:18:28.268Z,35.15
2023-03-01T13:21:00.452Z,35.30
2023-03-01T13:23:31.753Z,35.52
2023-03-01T13:26:05.437Z,35.96
2023-03-01T13:28:42.852Z,36.12
2023-03-01T13:31:12.448Z,35.77
2023-03-01T13:33:47.494Z,35.64
2023-03-01T13:36:37.007Z,35.66
2023-03-01T13:39:06.438Z,35.93
2023-03-01T13:41:40.065Z,35.18
2023-03-01T13:44:37.188Z,35.51
2023-03-01T13:47:07.733Z,35.94
2023-03-01T13:49:47.859Z,36.17
2023-03-01T13:52:31.553Z,36.19
2023-03-01T13:54:59.521Z,36.28
2023-03-01T13:57:31.521Z,35.81
2023-03-01T13:59:59.204Z,35.83
2023-03-01T14:02:26.695Z,35.48
2023-03-01T14:05:01.379Z,36.30
2023-03-01T14:07:32.138Z,36.40
2023-03-01T14:10:03.212Z,36.46
2023-03-01T14:12:30.573Z,36.37
2023-03-01T14:15:06.148Z,35.99
2023-03-01T14:18:05.133Z,36.65
2023-03-01T14:20:41.386Z,37.06
2023-03-01T14:23:30.518Z,37.23
2023-03-01T14:25:58.766Z,36.92
2023-03-01T14:28:34.361Z,36.74
2023-03-01T14:31:02.690Z,36.92
2023-03-01T14:33:37.054Z,36.80
2023-03-01T14:36:04.646Z,37.01
2023-03-01T14:38:37.697Z,36.62
2023-03-01T14:41:09.099Z,36.62
2023-03-01T14:43:38.827Z,36.92
2023-03-01T14:46:06.267Z,36.83
2023-03-01T14:48:33.725Z,36.53
2023-03-01T14:51:01.684Z,37.10
2023-03-01T14:53:34.134Z,37.04
2023-03-01T14:56:05.528Z,36.80
2023-03-01T14:58:34.350Z,37.05
2023-03-01T15:01:04.237Z,37.18
2023-03-01T15:03:38.088Z,37.50
2023-03-01T15:06:07.089Z,37.35
2023-03-01T15:08:35.316Z,37.26
2023-03-01T15:11:07.309Z,37.39
2023-03-01T15:13:36.753Z,36.97
2023-03-01T15:16:14.036Z,37.22
2023-03-01T15:18:54.418Z,37.35
2023-03-01T15:21:26.409Z,36.85
2023-03-01T15:23:57.226Z,37.26
2023-03-01T15:26:28.084Z,37.44
2023-03-01T15:28:59.138Z,37.57
2023-03-01T15:31:27.748Z,37.57
2023-03-01T15:34:20.380Z,37.66
2023-03-01T15:36:51.302Z,37.46
2023-03-01T15:39:47.760Z,37.57
2023-03-01T15:42:44.783Z,37.33
2023-03-01T15:45:22.459Z,37.19
2023-03-01T15:47:58.726Z,37.31
2023-03-01T15:50:33.886Z,37.58
2023-03-01T15:53:11.977Z,37.76
2023-03-01T15:55:39.362Z,37.62
2023-03-01T15:58:11.669Z,38.14
2023-03-01T16:00:46.280Z,38.17
2023-03-01T16:03:26.073Z,38.01
2023-03-01T16:05:53.441Z,37.92
2023-03-01T16:08:20.906Z,37.97
2023-03-01T16:10:50.936Z,37.72
2023-03-01T16:13:18.619Z,37.79
2023-03-01T16:15:46.046Z,37.98
2023-03-01T16:18:13.706Z,38.08
2023-03-01T16:20:41.218Z,38.19
2023-03-01T16:23:09.430Z,38.75
2023-03-01T16:25:37.291Z,39.08
2023-03-01T16:28:09.900Z,39.25
2023-03-01T16:30:40.337Z,39.23
2023-03-01T16:33:24.382Z,39.39
2023-03-01T16:35:55.570Z,39.93
2023-03-01T16:38:22.975Z,40.38
2023-03-01T16:40:51.934Z,40.58
2023-03-01T16:43:19.680Z,40.74
2023-03-01T16:45:47.430Z,41.23
2023-03-01T16:48:15.376Z,41.67
2023-03-01T16:50:43.169Z,41.88
2023-03-01T16:53:10.668Z,42.11
2023-03-01T16:55:38.914Z,42.32
2023-03-01T16:58:06.691Z,45.19
2023-03-01T17:00:34.111Z,43.38
2023-03-01T17:03:01.789Z,43.14
2023-03-01T17:05:29.519Z,43.85
2023-03-01T17:07:58.025Z,43.92
2023-03-01T17:10:25.563Z,44.03
2023-03-01T17:12:53.284Z,43.99
2023-03-01T17:15:20.702Z,44.46
2023-03-01T17:17:51.737Z,44.39
2023-03-01T17:20:20.080Z,44.41
2023-03-01T17:22:47.447Z,44.63
2023-03-01T17:25:15.811Z,46.54
2023-03-01T17:27:43.617Z,45.79
2023-03-01T17:30:13.101Z,45.38
2023-03-01T17:32:41.034Z,45.34
2023-03-01T17:35:11.599Z,45.58
2023-03-01T17:37:39.803Z,45.57
2023-03-01T17:40:07.734Z,45.68
2023-03-01T17:42:35.377Z,45.57
2023-03-01T17:45:02.896Z,45.68
2023-03-01T17:47:30.393Z,45.88
2023-03-01T17:49:58.056Z,45.83
2023-03-01T17:52:25.403Z,46.10
2023-03-01T17:54:52.799Z,45.93
2023-03-01T17:57:20.472Z,46.17
2023-03-01T17:59:47.863Z,46.24
2023-03-01T18:02:15.259Z,46.40
2023-03-01T18:04:42.961Z,46.46
2023-03-01T18:07:10.324Z,46.57
2023-03-01T18:09:37.879Z,46.69
2023-03-01T18:12:05.913Z,46.53
2023-03-01T18:14:34.149Z,46.58
2023-03-01T18:17:06.577Z,46.58
2023-03-01T18:19:34.317Z,46.74
2023-03-01T18:22:01.735Z,46.76
2023-03-01T18:24:29.165Z,46.81
2023-03-01T18:26:56.847Z,47.20
2023-03-01T18:29:24.247Z,47.22
2023-03-01T18:31:51.614Z,47.22
2023-03-01T18:34:19.226Z,47.43
2023-03-01T18:37:00.453Z,47.45
2023-03-01T18:39:34.071Z,47.87
2023-03-01T18:42:01.488Z,47.79
2023-03-01T18:44:28.870Z,47.88
2023-03-01T18:46:58.271Z,48.07
2023-03-01T18:49:26.354Z,48.34
2023-03-01T18:51:54.022Z,48.13
2023-03-01T18:54:21.683Z,48.63
2023-03-01T18:56:49.124Z,48.51
2023-03-01T18:59:16.587Z,48.43
2023-03-01T19:01:44.313Z,48.53
2023-03-01T19:04:11.817Z,49.03
2023-03-01T19:06:39.397Z,48.90
2023-03-01T19:09:08.269Z,48.98
2023-03-01T19:11:35.951Z,48.99
2023-03-01T19:14:04.056Z,49.16
2023-03-01T19:16:33.483Z,48.88
2023-03-01T19:19:02.340Z,48.70
2023-03-01T19:21:31.555Z,48.92
2023-03-01T19:24:02.298Z,49.07
2023-03-01T19:26:31.001Z,49.20
2023-03-01T19:28:59.373Z,49.29
2023-03-01T19:31:28.712Z,49.56
2023-03-01T19:34:10.002Z,49.68
2023-03-01T19:36:41.732Z,49.57
2023-03-01T19:39:09.954Z,49.75
2023-03-01T19:41:37.633Z,49.69
2023-03-01T19:44:05.988Z,49.76
2023-03-01T19:46:34.162Z,49.89
2023-03-01T19:49:03.494Z,49.91
2023-03-01T19:51:36.502Z,50.15
2023-03-01T19:54:05.857Z,50.33
2023-03-01T19:56:34.202Z,50.02
2023-03-01T19:59:04.262Z,50.11
2023-03-01T20:01:34.315Z,50.47
2023-03-01T20:04:03.100Z,50.43
2023-03-01T20:06:31.065Z,52.21
2023-03-01T20:09:00.648Z,50.75
2023-03-01T20:11:29.995Z,51.10
2023-03-01T20:13:57.760Z,51.00
2023-03-01T20:16:26.785Z,50.90
2023-03-01T20:18:54.563Z,50.85
2023-03-01T20:21:24.431Z,51.00
2023-03-01T20:23:52.474Z,50.94
2023-03-01T20:26:21.367Z,50.81
2023-03-01T20:28:50.759Z,51.05
2023-03-01T20:31:19.808Z,50.72
2023-03-01T20:33:48.370Z,50.84
2023-03-01T20:36:16.110Z,50.91
2023-03-01T20:38:43.521Z,50.98
2023-03-01T20:41:12.850Z,51.25
2023-03-01T20:43:43.462Z,51.09
2023-03-01T20:46:13.301Z,51.22
2023-03-01T20:48:44.950Z,51.21
2023-03-01T20:51:13.507Z,51.15
2023-03-01T20:53:41.215Z,51.42
2023-03-01T20:56:11.321Z,51.34
2023-03-01T20:58:39.330Z,51.70
2023-03-01T21:01:07.779Z,51.69
2023-03-01T21:03:35.884Z,51.23
2023-03-01T21:06:06.173Z,51.65
2023-03-01T21:08:35.220Z,51.60
2023-03-01T21:11:05.712Z,51.53
2023-03-01T21:13:34.677Z,51.90
2023-03-01T21:16:07.944Z,51.64
2023-03-01T21:18:36.966Z,51.57
2023-03-01T21:21:13.209Z,51.83
2023-03-01T21:23:41.817Z,52.21
2023-03-01T21:26:23.642Z,52.09
2023-03-01T21:28:55.058Z,51.57
2023-03-01T21:31:25.175Z,51.90
2023-03-01T21:33:55.189Z,52.31
2023-03-01T21:36:24.453Z,52.28
2023-03-01T21:38:52.656Z,52.69
2023-03-01T21:41:25.560Z,52.11
2023-03-01T21:43:54.458Z,52.04
2023-03-01T21:46:23.671Z,51.96
2023-03-01T21:48:52.436Z,52.34
2023-03-01T21:51:21.254Z,52.62
2023-03-01T21:53:50.526Z,52.43
2023-03-01T21:56:23.981Z,52.65
2023-03-01T21:58:51.884Z,52.32
2023-03-01T22:01:24.548Z,52.46
2023-03-01T22:03:52.431Z,52.67
2023-03-01T22:06:34.329Z,52.35
2023-03-01T22:09:05.985Z,51.96
2023-03-01T22:11:37.058Z,52.22
2023-03-01T22:14:05.435Z,53.12
2023-03-01T22:16:35.643Z,52.68
2023-03-01T22:19:04.901Z,52.76
2023-03-01T22:21:33.209Z,52.70
2023-03-01T22:24:01.518Z,52.84
2023-03-01T22:26:30.761Z,52.81
2023-03-01T22:29:01.226Z,52.92
2023-03-01T22:31:29.027Z,53.05
2023-03-01T22:33:56.994Z,53.17
2023-03-01T22:36:24.656Z,53.06
2023-03-01T22:39:00.089Z,53.03
2023-03-01T22:41:43.063Z,53.21
2023-03-01T22:44:15.046Z,53.32
2023-03-01T22:46:43.555Z,53.27
2023-03-01T22:49:10.995Z,53.25
2023-03-01T22:51:40.861Z,53.19
2023-03-01T22:54:09.688Z,53.39
2023-03-01T22:56:37.953Z,53.02
2023-03-01T22:59:11.303Z,53.19
2023-03-01T23:01:41.000Z,53.74
2023-03-01T23:04:08.422Z,53.54
2023-03-01T23:06:50.043Z,53.31
2023-03-01T23:09:20.649Z,53.92
2023-03-01T23:11:48.331Z,53.41
2023-03-01T23:14:16.166Z,53.57
2023-03-01T23:16:44.207Z,53.65
2023-03-01T23:19:11.778Z,53.68
2023-03-01T23:21:44.217Z,53.59
2023-03-01T23:24:13.607Z,53.88
2023-03-01T23:26:41.771Z,53.88
2023-03-01T23:29:09.245Z,54.10
2023-03-01T23:31:36.921Z,53.85
2023-03-01T23:34:04.476Z,53.91
2023-03-01T23:36:34.025Z,54.06
2023-03-01T23:39:06.207Z,54.15
2023-03-01T23:41:35.664Z,54.00
2023-03-01T23:44:04.200Z,54.10
2023-03-01T23:46:35.002Z,53.81
2023-03-01T23:49:03.491Z,54.05
2023-03-01T23:51:30.892Z,54.25
2023-03-01T23:54:01.589Z,54.27
2023-03-01T23:56:32.227Z,54.07
2023-03-01T23:59:01.755Z,54.08
